Terminal Aerodrome Forecast
Issued by NWS Melbourne, FL

Home | Current Version | Previous Version | Text Only | Print | Product List | Glossary On
Versions: 1 2 3 4 5 6 7 8 9 10 11 12 13
000
FTUS42 KMLB 292300 RRA
TAFVRB
TAF
KVRB 292354Z 3000/3024 25007KT P6SM VCSH FEW040 SCT120 BKN250
     FM300200 25005KT P6SM FEW040 SCT250
     FM301400 28006KT P6SM SCT025 SCT250
     FM301700 10006KT P6SM VCTS SCT035CB SCT250=

USA.gov is the U.S. government's official web portal to all federal, state and local government web resources and services.